Time;durP1;ratioP1;P1;durP2;ratioP2;P2;SDS_P1;SDS_P2;PMS_P1;PMS_P2;Temp;Humidity;BMP_temperature;BMP_pressure;BME280_temperature;BME280_humidity;BME280_pressure;Samples;Min_cycle;Max_cycle;Signal;HPM_P1;HPM_P2
2023/01/11 17:25:19;;;;;;;20.30;14.67;;;12.70;99.90;;;;;;4612994;19;20800;-32
2023/01/11 17:26:57;;;;;;;25.03;17.13;;;12.70;99.90;;;;;;4612926;19;20006;-30
2023/01/11 17:28:29;;;;;;;21.63;15.47;;;12.70;99.90;;;;;;4613522;19;20015;-29
2023/01/11 17:30:00;;;;;;;24.75;16.67;;;12.70;99.90;;;;;;4612974;19;20018;-29
2023/01/11 17:31:34;;;;;;;25.95;16.80;;;12.70;99.90;;;;;;4611498;19;20041;-30
2023/01/11 17:33:05;;;;;;;23.53;15.83;;;12.60;99.90;;;;;;4611207;19;20014;-30
2023/01/11 17:34:37;;;;;;;;;;;12.60;99.90;;;;;;4612004;19;20041;-32
2023/01/11 17:36:11;;;;;;;22.37;15.60;;;12.60;99.90;;;;;;4612288;19;20344;-31
2023/01/11 17:37:44;;;;;;;23.57;16.53;;;12.60;99.90;;;;;;4610350;19;20011;-30
2023/01/11 17:39:31;;;;;;;24.20;16.93;;;12.60;99.90;;;;;;4610670;19;20148;-32
2023/01/11 17:45:11;;;;;;;23.63;16.20;;;12.60;99.90;;;;;;4611074;19;20010;-30
2023/01/11 17:45:18;;;;;;;23.70;16.80;;;12.60;99.90;;;;;;4611895;19;20033;-29
2023/01/11 17:46:49;;;;;;;26.03;17.80;;;12.60;99.90;;;;;;4611213;19;20014;-31
2023/01/11 17:48:20;;;;;;;28.10;18.45;;;12.60;99.90;;;;;;4611381;19;20021;-30
2023/01/11 17:49:52;;;;;;;25.45;18.33;;;12.60;99.90;;;;;;4612215;19;20376;-30
2023/01/11 17:51:25;;;;;;;24.65;17.77;;;12.60;99.90;;;;;;4610886;19;20010;-30
2023/01/11 17:53:32;;;;;;;26.80;19.67;;;12.60;99.90;;;;;;4611873;19;20006;-29
2023/01/11 17:55:15;;;;;;;38.00;25.00;;;12.60;99.90;;;;;;4610229;19;20488;-30
2023/01/11 17:56:58;;;;;;;33.43;21.97;;;12.60;99.90;;;;;;4610043;19;20017;-31
2023/01/11 17:58:33;;;;;;;28.47;18.87;;;12.60;99.90;;;;;;4609659;19;20448;-31
2023/01/11 18:00:24;;;;;;;24.17;17.47;;;12.60;99.90;;;;;;4609827;19;20373;-30
2023/01/11 18:02:12;;;;;;;25.70;18.40;;;12.60;99.90;;;;;;4609926;19;20014;-30
2023/01/11 18:03:48;;;;;;;25.10;17.83;;;12.60;99.90;;;;;;4609316;19;20018;-30
2023/01/11 18:05:27;;;;;;;26.50;19.47;;;12.60;99.90;;;;;;4610033;19;20018;-32
2023/01/11 18:07:16;;;;;;;27.63;19.43;;;12.60;99.90;;;;;;4609861;19;20002;-32
2023/01/11 18:08:49;;;;;;;27.57;19.63;;;12.60;99.90;;;;;;4611698;19;20011;-30
2023/01/11 18:10:27;;;;;;;27.73;19.37;;;12.50;99.90;;;;;;4609680;19;20482;-31
2023/01/11 18:12:20;;;;;;;30.17;22.03;;;12.60;99.90;;;;;;4609373;19;20416;-33
2023/01/11 18:13:52;;;;;;;30.53;22.63;;;12.60;99.90;;;;;;4609682;19;20010;-32
2023/01/11 18:15:27;;;;;;;34.27;23.60;;;12.50;99.90;;;;;;4606046;19;20014;-31
2023/01/11 18:17:05;;;;;;;33.43;21.13;;;12.60;99.90;;;;;;4609407;19;20401;-36
2023/01/11 18:18:43;;;;;;;28.37;20.07;;;12.50;99.90;;;;;;4609534;19;20022;-30
2023/01/11 18:20:15;;;;;;;26.17;19.10;;;12.50;99.90;;;;;;4609838;19;20108;-34
2023/01/11 18:22:20;;;;;;;27.20;19.50;;;12.50;99.90;;;;;;4609059;19;20014;-29
2023/01/11 18:24:10;;;;;;;26.67;18.33;;;12.50;99.90;;;;;;4607727;19;20018;-33
2023/01/11 18:25:44;;;;;;;25.50;19.10;;;12.50;99.90;;;;;;4609413;19;20020;-30
2023/01/11 18:27:18;;;;;;;25.50;17.57;;;12.50;99.90;;;;;;4609089;19;21110;-36
2023/01/11 18:28:51;;;;;;;26.70;19.57;;;12.50;99.90;;;;;;4611619;19;20492;-35
2023/01/11 18:30:31;;;;;;;28.23;19.92;;;12.60;99.90;;;;;;4608916;19;20049;-31
2023/01/11 18:32:03;;;;;;;32.03;20.43;;;12.60;99.90;;;;;;4609498;19;20467;-31
2023/01/11 18:33:36;;;;;;;30.17;20.17;;;12.60;99.90;;;;;;4608684;19;20022;-33
2023/01/11 18:35:16;;;;;;;30.23;20.95;;;12.60;99.90;;;;;;4608476;19;20460;-30
2023/01/11 18:36:48;;;;;;;29.70;21.80;;;12.60;99.90;;;;;;4590685;19;20011;-31
2023/01/11 18:38:27;;;;;;;36.05;23.08;;;12.60;99.90;;;;;;4593410;19;20453;-31
2023/01/11 18:40:02;;;;;;;33.67;25.07;;;12.60;99.90;;;;;;4592705;19;20018;-32
2023/01/11 18:43:28;;;;;;;29.83;21.23;;;12.60;99.90;;;;;;4593079;19;20014;-30
2023/01/11 18:44:59;;;;;;;39.03;25.87;;;12.60;99.90;;;;;;4589761;19;20011;-29
2023/01/11 18:46:32;;;;;;;36.73;23.90;;;12.60;99.90;;;;;;4593450;19;20016;-34
2023/01/11 18:48:13;;;;;;;31.57;21.37;;;12.60;99.90;;;;;;4592472;19;20096;-30
2023/01/11 18:49:46;;;;;;;35.47;24.30;;;12.60;99.90;;;;;;4593454;19;20018;-36
2023/01/11 18:54:00;;;;;;;34.07;22.57;;;12.60;99.90;;;;;;4591549;19;20016;-31
2023/01/11 18:55:31;;;;;;;33.25;22.85;;;12.60;99.90;;;;;;4591962;19;20038;-36
2023/01/11 18:57:03;;;;;;;35.88;24.40;;;12.60;99.90;;;;;;4594445;19;20014;-32
2023/01/11 18:58:34;;;;;;;37.45;28.10;;;12.60;99.90;;;;;;4593812;19;20471;-36
2023/01/11 19:00:06;;;;;;;43.42;27.48;;;12.60;99.90;;;;;;4595723;19;20480;-29
2023/01/11 19:01:38;;;;;;;35.00;24.37;;;12.60;99.90;;;;;;4594119;19;20340;-30
2023/01/11 19:03:09;;;;;;;37.00;25.83;;;12.60;99.90;;;;;;4594061;19;20046;-34
2023/01/11 19:04:41;;;;;;;35.25;25.55;;;12.60;99.90;;;;;;4590510;19;20031;-33
2023/01/11 19:06:14;;;;;;;30.67;22.87;;;12.60;99.90;;;;;;4592385;19;20468;-29
2023/01/11 19:07:46;;;;;;;40.13;27.27;;;12.60;99.90;;;;;;4591487;19;20023;-29
2023/01/11 19:09:17;;;;;;;;;;;12.60;99.90;;;;;;4593347;19;20015;-36
2023/01/11 19:10:50;;;;;;;66.85;39.20;;;12.50;99.90;;;;;;4589481;19;20321;-34
2023/01/11 19:12:25;;;;;;;47.60;30.90;;;12.60;99.90;;;;;;4590505;19;20033;-32
2023/01/11 19:16:02;;;;;;;60.77;36.33;;;12.60;99.90;;;;;;4591667;19;20006;-31
2023/01/11 19:17:34;;;;;;;48.97;32.80;;;12.60;99.90;;;;;;4589128;19;20019;-30
2023/01/11 19:19:44;;;;;;;42.10;30.15;;;12.60;99.90;;;;;;4590182;19;20006;-29
2023/01/11 19:21:15;;;;;;;41.50;26.27;;;12.60;99.90;;;;;;4592472;19;20010;-32
2023/01/11 19:22:47;;;;;;;38.80;26.80;;;12.60;99.90;;;;;;4591904;19;20022;-32
2023/01/11 19:24:20;;;;;;;43.07;29.97;;;12.60;99.90;;;;;;4591498;19;20029;-36
2023/01/11 19:25:58;;;;;;;38.77;27.83;;;12.70;99.90;;;;;;4592003;19;20022;-34
2023/01/11 19:27:31;;;;;;;38.20;25.90;;;12.60;99.90;;;;;;4590349;19;20015;-32
2023/01/11 19:29:04;;;;;;;32.60;24.33;;;12.60;99.90;;;;;;4591662;19;20372;-32
2023/01/11 19:30:37;;;;;;;33.63;23.70;;;12.60;99.90;;;;;;4590018;19;20070;-32
2023/01/11 19:32:08;;;;;;;33.27;22.07;;;12.60;99.90;;;;;;4590718;19;20105;-33
2023/01/11 19:33:40;;;;;;;31.52;22.55;;;12.60;99.90;;;;;;4590534;19;20015;-35
2023/01/11 19:35:11;;;;;;;27.35;19.15;;;12.70;99.90;;;;;;4591108;19;20014;-33
2023/01/11 19:36:42;;;;;;;31.25;22.10;;;12.60;99.90;;;;;;4590445;19;20039;-31
2023/01/11 19:38:17;;;;;;;29.50;21.70;;;12.60;99.90;;;;;;4589475;19;20543;-34
2023/01/11 19:39:48;;;;;;;30.73;22.20;;;12.60;99.90;;;;;;4589746;19;20014;-37
2023/01/11 19:41:19;;;;;;;34.58;24.55;;;12.60;99.90;;;;;;4589929;19;20575;-35
2023/01/11 19:42:51;;;;;;;37.13;26.70;;;12.60;99.90;;;;;;4589340;19;20520;-32
2023/01/11 19:44:23;;;;;;;;;;;12.60;99.90;;;;;;4590445;19;20531;-37
2023/01/11 19:45:56;;;;;;;33.00;22.67;;;12.60;99.90;;;;;;4589127;19;19934;-30
2023/01/11 19:47:27;;;;;;;28.33;20.23;;;12.60;99.90;;;;;;4588100;19;20082;-30
2023/01/11 19:48:58;;;;;;;30.05;20.95;;;12.60;99.90;;;;;;4589420;19;20034;-34
2023/01/11 19:50:29;;;;;;;31.00;22.60;;;12.60;99.90;;;;;;4590305;19;20022;-30
2023/01/11 19:52:02;;;;;;;32.40;22.35;;;12.60;99.90;;;;;;4591615;19;20336;-31
2023/01/11 19:53:33;;;;;;;26.37;19.37;;;12.60;99.90;;;;;;4589020;19;20082;-32
2023/01/11 20:16:13;;;;;;;28.43;18.17;;;12.60;99.90;;;;;;4590489;19;20014;-29
2023/01/11 20:17:44;;;;;;;20.77;16.40;;;12.60;99.90;;;;;;4592517;19;20460;-30
2023/01/11 20:19:16;;;;;;;22.10;16.60;;;12.60;99.90;;;;;;4589495;19;20024;-36
2023/01/11 20:20:56;;;;;;;22.63;16.45;;;12.70;99.90;;;;;;4592661;19;20026;-34
2023/01/11 20:22:30;;;;;;;23.00;15.70;;;12.70;99.90;;;;;;4591833;19;20018;-41
2023/01/11 20:24:02;;;;;;;22.03;15.30;;;12.60;99.90;;;;;;4588755;19;20018;-30
2023/01/11 20:25:33;;;;;;;20.30;15.15;;;12.60;99.90;;;;;;4589345;19;20015;-32
2023/01/11 20:27:05;;;;;;;20.75;14.77;;;12.60;99.90;;;;;;4590344;19;20507;-33
2023/01/11 20:28:37;;;;;;;24.50;15.33;;;12.60;99.90;;;;;;4589635;19;20019;-34
2023/01/11 20:30:09;;;;;;;19.63;14.05;;;12.60;99.90;;;;;;4589878;19;20010;-32
2023/01/11 20:31:41;;;;;;;20.00;14.57;;;12.70;99.90;;;;;;4589151;19;20042;-35
2023/01/11 20:33:12;;;;;;;21.40;14.97;;;12.60;99.90;;;;;;4589360;19;20006;-30
2023/01/11 20:34:44;;;;;;;;;;;12.60;99.90;;;;;;4591098;19;20007;-37
2023/01/11 20:36:16;;;;;;;24.50;16.98;;;12.60;99.90;;;;;;4590172;19;19926;-32
2023/01/11 20:37:52;;;;;;;31.43;19.73;;;12.60;99.90;;;;;;4590153;19;20007;-33
2023/01/11 20:39:24;;;;;;;41.27;25.53;;;12.60;99.90;;;;;;4590195;19;20010;-35
2023/01/11 20:40:56;;;;;;;30.20;19.10;;;12.60;99.90;;;;;;4589312;19;20011;-38
2023/01/11 20:42:29;;;;;;;37.50;22.90;;;12.70;99.90;;;;;;4589891;19;20082;-35
2023/01/11 20:44:01;;;;;;;31.97;20.13;;;12.70;99.90;;;;;;4589891;19;20014;-37
2023/01/11 20:45:34;;;;;;;40.00;24.23;;;12.60;99.90;;;;;;4590049;19;20007;-32
2023/01/11 20:47:05;;;;;;;33.78;20.95;;;12.70;99.90;;;;;;4590246;19;20492;-32
2023/01/11 20:48:36;;;;;;;29.05;18.00;;;12.60;99.90;;;;;;4589845;19;20090;-37
2023/01/11 20:50:09;;;;;;;25.10;18.20;;;12.60;99.90;;;;;;4589107;19;20073;-32
2023/01/11 20:51:41;;;;;;;27.95;18.67;;;12.60;99.90;;;;;;4589734;19;20010;-30
2023/01/11 20:53:13;;;;;;;26.20;18.27;;;12.60;99.90;;;;;;4588566;19;20021;-35
2023/01/11 20:54:45;;;;;;;31.88;22.50;;;12.60;99.90;;;;;;4588715;19;20018;-37
2023/01/11 20:56:18;;;;;;;25.83;18.57;;;12.60;99.90;;;;;;4589646;19;20030;-37
2023/01/11 20:57:50;;;;;;;26.92;18.13;;;12.50;99.90;;;;;;4590355;19;20476;-34
2023/01/11 21:04:46;;;;;;;23.57;17.70;;;12.50;99.90;;;;;;4588466;19;20045;-33
2023/01/11 21:06:17;;;;;;;33.40;22.60;;;12.60;99.90;;;;;;4589759;19;20010;-33
2023/01/11 21:07:51;;;;;;;27.13;19.98;;;12.50;99.90;;;;;;4590005;19;20006;-33
2023/01/11 21:09:22;;;;;;;25.47;17.50;;;12.50;99.90;;;;;;4589673;19;20014;-36
2023/01/11 21:10:54;;;;;;;24.23;17.40;;;12.50;99.90;;;;;;4589664;19;20022;-31
2023/01/11 21:12:25;;;;;;;25.83;19.08;;;12.50;99.90;;;;;;4590099;19;20018;-36
2023/01/11 21:13:58;;;;;;;26.90;18.92;;;12.50;99.90;;;;;;4589409;19;20007;-29
